Aérodrome :
LOGIN :

S'inscrire | Disclaimer

   EN    FR    IT 

 










Légende :    VFR   VFR Marginal   IFR   IFR Intensif   IFR Très Intensif
Visi : 
Plafond : 
>= 8 km
>= 3000ft
5 à 8 km
1000 à 3000 ft
1500m à 5 km
500 à 1000 ft
800 à 1500m
200 à 500 ft
< 800m
< 200 ft
Symboles :   Orages  Brouillard  Fortes neiges  Fortes précipitations  Vent > 20 kt
SIGMETs :   Divers  Orages  Givrage  Turbulence  Onde Orograph.  Cendres Volcan.






- Altitude de l'aérodrome : 425 ft
- Code IATA : DTM


EDLW - Dortmund

DERNIER METAR :
  • 051120Z 20011KT 9999 FEW022 06/02 Q0997

METARs EXPIRÉS :
  • 051050Z 19008KT 9999 FEW023 06/02 Q0997
  • 051020Z 19009KT 9999 FEW019 SCT027 05/02 Q0997
  • 050950Z 17007KT CAVOK 06/03 Q0997
  • 050920Z 19008KT CAVOK 05/03 Q0997

TAF TAF EDLW
Valide du 05 à 12h jusqu'au 06 à 12h UTC


051100Z 0512/0612 20008KT 9999 SCT030
BECMG 0516/0519 11003KT
BECMG 0605/0608 OVC013
BECMG 0609/0612 36005KT
TEMPO 0610/0612 2000 BR BKN007



MET'MAP, la Météo Aéronautique d'un coup d'oeil ! - Copyright ORBIFLY Décembre 2007 - Disclaimer

ORBIFLY MET'MAP TEAM :

Programmation & Développement : Alexandra Zaïnal
Sur une idée originale de : Baudouin d'Aumeries
Assistance à la programmation : Marc-Olivier Méhu
Soutien technique & logistique : Manuel Goepfert

Contact : metmap@orbifly.com




SOURCES & CREDITS :

   NOAA